createdAt,value
2019-04-11T00:00:33.256Z,61.61
2019-04-11T00:03:03.008Z,60.12
2019-04-11T00:05:31.764Z,60.76
2019-04-11T00:08:01.536Z,60.93
2019-04-11T00:10:31.271Z,61.68
2019-04-11T00:13:01.244Z,61.64
2019-04-11T00:15:30.719Z,60.85
2019-04-11T00:18:00.761Z,61.82
2019-04-11T00:20:29.430Z,60.88
2019-04-11T00:22:58.019Z,59.89
2019-04-11T00:25:27.474Z,60.50
2019-04-11T00:27:57.282Z,61.05
2019-04-11T00:30:26.268Z,62.06
2019-04-11T00:32:55.940Z,62.00
2019-04-11T00:35:25.913Z,61.49
2019-04-11T00:37:54.612Z,62.05
2019-04-11T00:40:23.173Z,61.64
2019-04-11T00:42:52.640Z,61.29
2019-04-11T00:45:21.357Z,61.23
2019-04-11T00:47:50.168Z,63.54
2019-04-11T00:50:19.084Z,61.92
2019-04-11T00:52:47.771Z,61.39
2019-04-11T00:55:17.523Z,62.37
2019-04-11T00:57:47.173Z,62.29
2019-04-11T01:00:16.553Z,61.68
2019-04-11T01:02:45.542Z,61.83
2019-04-11T01:05:15.129Z,61.83
2019-04-11T01:07:43.933Z,62.59
2019-04-11T01:10:12.399Z,62.56
2019-04-11T01:12:41.183Z,62.78
2019-04-11T01:15:11.723Z,63.37
2019-04-11T01:17:41.326Z,63.48
2019-04-11T01:20:11.239Z,64.05
2019-04-11T01:22:40.531Z,63.95
2019-04-11T01:25:10.498Z,64.30
2019-04-11T01:27:39.971Z,64.05
2019-04-11T01:30:13.749Z,63.62
2019-04-11T01:32:42.678Z,63.47
2019-04-11T01:35:11.209Z,63.16
2019-04-11T01:37:40.367Z,63.68
2019-04-11T01:40:09.905Z,63.26
2019-04-11T01:42:39.637Z,62.20
2019-04-11T01:45:09.563Z,63.23
2019-04-11T01:47:39.989Z,63.10
2019-04-11T01:50:08.721Z,62.73
2019-04-11T01:52:38.267Z,63.85
2019-04-11T01:55:08.133Z,63.98
2019-04-11T01:57:37.923Z,63.55
2019-04-11T02:00:09.741Z,63.67
2019-04-11T02:02:42.868Z,64.31
2019-04-11T02:05:32.708Z,64.14
2019-04-11T02:08:01.433Z,63.68
2019-04-11T02:10:30.020Z,64.61
2019-04-11T02:12:59.618Z,64.61
2019-04-11T02:15:28.560Z,64.45
2019-04-11T02:17:57.775Z,64.55
2019-04-11T02:20:27.157Z,64.50
2019-04-11T02:23:00.358Z,64.26
2019-04-11T02:25:46.966Z,65.19
2019-04-11T02:28:17.418Z,64.19
2019-04-11T02:30:51.297Z,64.19
2019-04-11T02:33:21.754Z,65.23
2019-04-11T02:35:51.876Z,65.23
2019-04-11T02:38:21.410Z,65.58
2019-04-11T02:40:52.483Z,65.23
2019-04-11T02:43:22.981Z,66.66
2019-04-11T02:46:04.485Z,67.68
2019-04-11T02:48:22.316Z,67.61
2019-04-11T02:50:51.101Z,67.49
2019-04-11T02:53:21.337Z,67.49
2019-04-11T02:55:52.155Z,67.38
2019-04-11T02:58:22.866Z,68.37
2019-04-11T03:00:53.654Z,68.37
2019-04-11T03:03:23.211Z,69.05
2019-04-11T03:05:53.273Z,69.05
2019-04-11T03:08:24.027Z,69.41
2019-04-11T03:10:53.547Z,67.76
2019-04-11T03:13:23.373Z,68.25
2019-04-11T03:16:05.359Z,69.30
2019-04-11T03:18:42.523Z,68.79
2019-04-11T03:21:00.172Z,68.96
2019-04-11T03:23:27.876Z,69.34
2019-04-11T03:25:56.689Z,69.34
2019-04-11T03:28:28.251Z,70.16
2019-04-11T03:31:30.414Z,70.95
2019-04-11T03:34:15.731Z,69.75
2019-04-11T03:36:50.938Z,70.01
2019-04-11T03:38:46.951Z,70.98
2019-04-11T03:41:16.109Z,71.62
2019-04-11T03:43:39.466Z,72.72
2019-04-11T03:46:19.987Z,72.71
2019-04-11T03:48:45.395Z,73.38
2019-04-11T03:51:01.921Z,73.04
2019-04-11T03:53:32.479Z,73.80
2019-04-11T03:56:03.217Z,74.85
2019-04-11T03:58:33.199Z,73.86
2019-04-11T04:01:05.449Z,74.61
2019-04-11T04:03:34.048Z,74.71
2019-04-11T04:06:04.428Z,75.21
2019-04-11T04:08:34.244Z,75.40
2019-04-11T04:11:23.152Z,75.62
2019-04-11T04:13:56.814Z,76.27
2019-04-11T04:16:40.779Z,76.63
2019-04-11T04:19:16.231Z,75.81
2019-04-11T04:21:53.242Z,75.35
2019-04-11T04:24:39.817Z,75.46
2019-04-11T04:27:07.637Z,75.15
2019-04-11T04:29:37.851Z,76.21
2019-04-11T04:32:08.235Z,75.14
2019-04-11T04:34:37.334Z,74.09
2019-04-11T04:37:07.746Z,74.33
2019-04-11T04:39:37.701Z,75.42
2019-04-11T04:42:17.164Z,75.50
2019-04-11T04:44:40.437Z,75.36
2019-04-11T04:47:19.326Z,74.45
2019-04-11T04:49:40.831Z,74.46
2019-04-11T04:52:11.838Z,75.02
2019-04-11T04:54:41.094Z,75.27
2019-04-11T04:57:12.858Z,75.23
2019-04-11T04:59:42.449Z,74.13
2019-04-11T05:02:12.641Z,74.57
2019-04-11T05:04:41.201Z,74.10
2019-04-11T05:07:11.357Z,75.62
2019-04-11T05:09:40.555Z,74.53
2019-04-11T05:12:09.907Z,75.25
2019-04-11T05:14:39.294Z,75.10
2019-04-11T05:17:08.772Z,74.17
2019-04-11T05:19:38.360Z,73.20
2019-04-11T05:22:08.471Z,73.78
2019-04-11T05:24:38.855Z,73.96
2019-04-11T05:27:08.341Z,73.15
2019-04-11T05:29:37.627Z,72.32
2019-04-11T05:32:07.251Z,73.14
2019-04-11T05:34:37.133Z,73.65
2019-04-11T05:37:06.814Z,72.24
2019-04-11T05:39:35.922Z,70.07
2019-04-11T05:42:05.064Z,70.07
2019-04-11T05:44:37.431Z,71.37
2019-04-11T05:47:06.720Z,69.96
2019-04-11T05:49:42.490Z,70.99
2019-04-11T05:52:12.367Z,69.79
2019-04-11T05:54:48.952Z,70.96
2019-04-11T05:57:20.825Z,69.11
2019-04-11T05:59:52.069Z,68.69
2019-04-11T06:02:19.318Z,67.24
2019-04-11T06:04:53.487Z,68.64
2019-04-11T06:07:41.596Z,69.42
2019-04-11T06:10:11.471Z,67.64
2019-04-11T06:12:56.861Z,66.90
2019-04-11T06:15:42.381Z,68.21
2019-04-11T06:18:22.842Z,67.55
2019-04-11T06:20:43.122Z,66.50
2019-04-11T06:23:13.425Z,67.50
2019-04-11T06:25:49.350Z,66.69
2019-04-11T06:28:22.459Z,66.69
2019-04-11T06:31:09.686Z,66.66
2019-04-11T06:33:40.704Z,64.50
2019-04-11T06:36:23.415Z,63.93
2019-04-11T06:38:54.677Z,64.76
2019-04-11T06:41:34.741Z,64.31
2019-04-11T06:44:05.400Z,65.98
2019-04-11T06:46:48.791Z,66.75
2019-04-11T06:49:18.993Z,64.15
2019-04-11T06:51:58.341Z,65.33
2019-04-11T06:54:37.783Z,64.92
2019-04-11T06:57:11.794Z,64.85
2019-04-11T06:59:44.898Z,64.94
2019-04-11T07:02:19.437Z,64.23
2019-04-11T07:04:49.639Z,63.06
2019-04-11T07:07:19.059Z,63.18
2019-04-11T07:09:53.341Z,62.65
2019-04-11T07:12:26.593Z,63.00
2019-04-11T07:15:02.618Z,63.95
2019-04-11T07:17:49.082Z,63.78
2019-04-11T07:20:35.749Z,61.83
2019-04-11T07:23:22.660Z,62.10
2019-04-11T07:25:53.914Z,63.37
2019-04-11T07:28:25.270Z,64.29
2019-04-11T07:31:07.571Z,64.79
2019-04-11T07:33:49.607Z,63.40
2019-04-11T07:36:36.107Z,64.78
2019-04-11T07:39:12.809Z,61.76
2019-04-11T07:41:45.456Z,63.99
2019-04-11T07:44:34.182Z,61.66
2019-04-11T07:47:26.026Z,60.29
2019-04-11T07:49:55.323Z,59.63
2019-04-11T07:52:25.648Z,60.74
2019-04-11T07:54:55.899Z,58.79
2019-04-11T07:57:31.996Z,62.58
2019-04-11T08:00:15.055Z,60.28
2019-04-11T08:02:55.228Z,59.28
2019-04-11T08:05:42.070Z,60.29
2019-04-11T08:08:13.364Z,60.64
2019-04-11T08:10:43.796Z,61.33
2019-04-11T08:13:20.670Z,59.03
2019-04-11T08:15:53.785Z,59.63
2019-04-11T08:18:41.129Z,61.04
2019-04-11T08:21:28.286Z,57.93
2019-04-11T08:24:07.849Z,55.57
2019-04-11T08:26:55.380Z,56.12
2019-04-11T08:29:24.408Z,51.04
2019-04-11T08:32:11.727Z,51.28
2019-04-11T08:34:47.974Z,50.11
2019-04-11T08:37:34.447Z,47.91
2019-04-11T08:40:05.784Z,47.63
2019-04-11T08:42:45.219Z,48.96
2019-04-11T08:45:17.550Z,48.25
2019-04-11T08:47:53.986Z,50.82
2019-04-11T08:50:20.664Z,49.19
2019-04-11T08:52:54.195Z,55.33
2019-04-11T08:55:24.492Z,51.17
2019-04-11T08:57:54.594Z,53.00
2019-04-11T09:00:28.251Z,52.52
2019-04-11T09:03:05.089Z,52.46
2019-04-11T09:05:38.757Z,50.56
2019-04-11T09:08:09.975Z,49.31
2019-04-11T09:10:56.386Z,50.05
2019-04-11T09:13:29.299Z,50.47
2019-04-11T09:16:05.556Z,51.69
2019-04-11T09:18:36.450Z,50.45
2019-04-11T09:21:07.825Z,49.84
2019-04-11T09:23:37.969Z,50.89
2019-04-11T09:26:11.836Z,49.48
2019-04-11T09:28:41.864Z,48.80
2019-04-11T09:31:29.383Z,51.67
2019-04-11T09:34:09.192Z,50.92
2019-04-11T09:36:49.302Z,48.67
2019-04-11T09:39:19.640Z,42.61
2019-04-11T09:42:07.184Z,45.33
2019-04-11T09:44:49.579Z,45.81
2019-04-11T09:47:22.291Z,45.89
2019-04-11T09:49:55.927Z,48.50
2019-04-11T09:52:33.202Z,50.76
2019-04-11T09:55:19.166Z,50.45
2019-04-11T09:57:50.403Z,49.87
2019-04-11T10:00:20.913Z,51.83
2019-04-11T10:02:52.720Z,51.41
2019-04-11T10:05:24.332Z,49.39
2019-04-11T10:08:11.146Z,49.95
2019-04-11T10:10:47.306Z,48.79
2019-04-11T10:13:18.643Z,47.59
2019-04-11T10:16:05.212Z,48.73
2019-04-11T10:18:38.712Z,50.49
2019-04-11T10:21:06.871Z,49.34
2019-04-11T10:23:40.955Z,49.97
2019-04-11T10:26:09.790Z,48.88
2019-04-11T10:28:55.896Z,50.06
2019-04-11T10:31:24.569Z,50.96
2019-04-11T10:34:11.277Z,49.27
2019-04-11T10:36:43.140Z,49.78
2019-04-11T10:39:15.290Z,49.34
2019-04-11T10:41:49.135Z,48.57
2019-04-11T10:44:19.739Z,49.37
2019-04-11T10:46:53.049Z,46.43
2019-04-11T10:49:26.487Z,47.78
2019-04-11T10:52:02.304Z,48.73
2019-04-11T10:54:32.559Z,48.80
2019-04-11T10:57:20.937Z,48.15
2019-04-11T10:59:51.140Z,48.13
2019-04-11T11:02:37.734Z,48.24
2019-04-11T11:05:07.358Z,48.27
2019-04-11T11:07:37.049Z,46.83
2019-04-11T11:10:11.178Z,47.35
2019-04-11T11:12:44.038Z,48.60
2019-04-11T11:15:17.688Z,48.58
2019-04-11T11:18:20.683Z,51.88
2019-04-11T11:20:33.647Z,53.47
2019-04-11T11:22:57.599Z,52.76
2019-04-11T11:25:30.977Z,53.58
2019-04-11T11:28:00.261Z,51.29
2019-04-11T11:30:47.739Z,50.57
2019-04-11T11:33:16.776Z,49.49
2019-04-11T11:35:50.346Z,48.62
2019-04-11T11:38:21.862Z,48.60
2019-04-11T11:40:58.423Z,49.34
2019-04-11T11:43:28.739Z,48.26
2019-04-11T11:46:16.061Z,49.24
2019-04-11T11:48:49.948Z,48.92
2019-04-11T11:51:35.253Z,49.30
2019-04-11T11:54:11.592Z,50.50
2019-04-11T11:56:42.406Z,48.39
2019-04-11T11:59:16.978Z,47.50
2019-04-11T12:01:50.941Z,46.86
2019-04-11T12:04:24.058Z,47.72
2019-04-11T12:06:59.922Z,47.83
2019-04-11T12:09:43.160Z,47.91
2019-04-11T12:12:13.573Z,47.53
2019-04-11T12:14:59.839Z,47.76
2019-04-11T12:17:46.933Z,48.68
2019-04-11T12:20:20.843Z,45.99
2019-04-11T12:22:51.026Z,44.07
2019-04-11T12:25:27.331Z,45.93
2019-04-11T12:27:58.288Z,44.82
2019-04-11T12:30:44.121Z,45.58
2019-04-11T12:33:14.600Z,45.26
2019-04-11T12:35:59.593Z,46.50
2019-04-11T12:38:35.688Z,47.20
2019-04-11T12:41:20.938Z,47.75
2019-04-11T12:44:06.298Z,47.80
2019-04-11T12:46:52.997Z,49.10
2019-04-11T12:49:23.139Z,47.80
2019-04-11T12:52:09.470Z,45.32
2019-04-11T12:54:55.982Z,45.60
2019-04-11T12:57:26.185Z,45.04
2019-04-11T13:00:05.723Z,43.24
2019-04-11T13:02:38.490Z,47.67
2019-04-11T13:05:09.380Z,48.46
2019-04-11T13:07:42.960Z,48.90
2019-04-11T13:10:13.288Z,48.18
2019-04-11T13:12:52.215Z,48.84
2019-04-11T13:15:22.432Z,48.47
2019-04-11T13:17:52.647Z,48.41
2019-04-11T13:20:28.925Z,47.87
2019-04-11T13:22:59.228Z,47.34
2019-04-11T13:25:45.641Z,45.73
2019-04-11T13:28:14.174Z,47.14
2019-04-11T13:30:44.303Z,45.32
2019-04-11T13:33:14.731Z,45.96
2019-04-11T13:35:45.005Z,46.45
2019-04-11T13:38:18.028Z,45.17
2019-04-11T13:40:48.228Z,47.28
2019-04-11T13:43:36.538Z,44.82
2019-04-11T13:46:22.790Z,45.05
2019-04-11T13:49:04.865Z,45.01
2019-04-11T13:51:35.135Z,46.28
2019-04-11T13:54:23.407Z,48.11
2019-04-11T13:57:11.797Z,46.92
2019-04-11T13:59:58.266Z,43.79
2019-04-11T14:02:34.160Z,41.71
2019-04-11T14:05:04.359Z,44.99
2019-04-11T14:07:34.517Z,44.16
2019-04-11T14:10:04.909Z,45.95
2019-04-11T14:12:34.108Z,46.03
2019-04-11T14:15:06.240Z,47.90
2019-04-11T14:17:48.308Z,47.17
2019-04-11T14:20:28.598Z,45.58
2019-04-11T14:22:53.302Z,47.14
2019-04-11T14:25:26.378Z,46.19
2019-04-11T14:28:08.506Z,46.30
2019-04-11T14:30:39.248Z,45.03
2019-04-11T14:33:08.027Z,45.79
2019-04-11T14:35:44.458Z,45.47
2019-04-11T14:38:14.646Z,46.76
2019-04-11T14:40:45.062Z,46.37
2019-04-11T14:43:21.216Z,47.83
2019-04-11T14:45:54.240Z,47.28
2019-04-11T14:48:42.818Z,46.03
2019-04-11T14:51:16.651Z,47.16
2019-04-11T14:54:03.715Z,47.82
2019-04-11T14:56:52.453Z,49.56
2019-04-11T14:59:25.177Z,48.14
2019-04-11T15:02:07.486Z,47.15
2019-04-11T15:04:46.200Z,49.82
2019-04-11T15:07:16.649Z,47.75
2019-04-11T15:09:47.305Z,48.84
2019-04-11T15:12:18.371Z,51.12
2019-04-11T15:15:04.876Z,49.99
2019-04-11T15:17:35.201Z,53.93
2019-04-11T15:20:05.477Z,54.14
2019-04-11T15:22:50.654Z,49.46
2019-04-11T15:25:23.329Z,50.05
2019-04-11T15:27:56.217Z,49.11
2019-04-11T15:30:43.475Z,48.72
2019-04-11T15:33:25.993Z,49.84
2019-04-11T15:35:58.051Z,49.98
2019-04-11T15:38:39.938Z,50.45
2019-04-11T15:41:09.204Z,50.47
2019-04-11T15:43:54.510Z,50.13
2019-04-11T15:46:24.667Z,50.64
2019-04-11T15:49:20.406Z,49.29
2019-04-11T15:51:42.973Z,49.91
2019-04-11T15:54:15.830Z,52.33
2019-04-11T15:56:49.400Z,50.64
2019-04-11T15:59:38.023Z,50.51
2019-04-11T16:02:11.489Z,52.69
2019-04-11T16:04:44.421Z,51.42
2019-04-11T16:07:14.579Z,51.24
2019-04-11T16:09:44.914Z,50.54
2019-04-11T16:12:21.209Z,52.01
2019-04-11T16:14:51.391Z,53.45
2019-04-11T16:17:37.702Z,51.73
2019-04-11T16:20:07.591Z,53.79
2019-04-11T16:22:55.021Z,52.14
2019-04-11T16:25:23.051Z,52.94
2019-04-11T16:27:56.338Z,51.20
2019-04-11T16:30:26.449Z,52.35
2019-04-11T16:33:08.369Z,51.87
2019-04-11T16:35:50.908Z,53.04
2019-04-11T16:38:33.102Z,51.20
2019-04-11T16:41:19.148Z,52.46
2019-04-11T16:43:58.417Z,54.29
2019-04-11T16:46:31.558Z,53.75
2019-04-11T16:49:00.167Z,54.58
2019-04-11T16:51:31.107Z,53.09
2019-04-11T16:53:58.970Z,53.84
2019-04-11T16:56:27.461Z,53.56
2019-04-11T16:58:56.205Z,52.56
2019-04-11T17:01:24.782Z,53.12
2019-04-11T17:03:55.187Z,54.56
2019-04-11T17:06:41.069Z,54.74
2019-04-11T17:09:17.042Z,52.51
2019-04-11T17:11:45.643Z,54.47
2019-04-11T17:14:14.256Z,54.44
2019-04-11T17:16:42.716Z,55.53
2019-04-11T17:19:11.833Z,55.63
2019-04-11T17:21:43.351Z,54.70
2019-04-11T17:24:10.518Z,54.20
2019-04-11T17:26:39.035Z,55.08
2019-04-11T17:29:07.739Z,55.28
2019-04-11T17:31:36.259Z,55.24
2019-04-11T17:34:05.730Z,55.22
2019-04-11T17:36:34.480Z,55.16
2019-04-11T17:39:06.748Z,55.23
2019-04-11T17:41:35.350Z,54.79
2019-04-11T17:44:03.930Z,56.37
2019-04-11T17:46:32.436Z,55.38
2019-04-11T17:49:00.971Z,55.25
2019-04-11T17:51:29.632Z,55.48
2019-04-11T17:53:58.155Z,54.29
2019-04-11T17:56:26.703Z,56.26
2019-04-11T17:58:57.648Z,57.19
2019-04-11T18:01:25.577Z,56.47
2019-04-11T18:03:54.238Z,55.67
2019-04-11T18:06:22.854Z,56.30
2019-04-11T18:08:52.124Z,56.11
2019-04-11T18:11:20.930Z,58.12
2019-04-11T18:13:49.638Z,57.08
2019-04-11T18:16:18.132Z,56.68
2019-04-11T18:18:46.621Z,56.81
2019-04-11T18:21:15.288Z,57.38
2019-04-11T18:23:43.833Z,56.98
2019-04-11T18:26:12.380Z,56.44
2019-04-11T18:28:40.889Z,58.69
2019-04-11T18:31:09.461Z,58.43
2019-04-11T18:33:38.151Z,57.94
2019-04-11T18:36:07.016Z,57.98
2019-04-11T18:38:35.649Z,58.30
2019-04-11T18:41:04.298Z,58.00
2019-04-11T18:43:32.927Z,58.14
2019-04-11T18:46:01.435Z,59.43
2019-04-11T18:48:30.104Z,57.61
2019-04-11T18:50:58.870Z,58.87
2019-04-11T18:53:27.361Z,58.36
2019-04-11T18:55:55.938Z,57.13
2019-04-11T18:58:24.680Z,57.99
2019-04-11T19:00:53.290Z,57.44
2019-04-11T19:03:21.922Z,56.70
2019-04-11T19:05:50.986Z,59.24
2019-04-11T19:08:19.632Z,58.78
2019-04-11T19:10:48.443Z,58.63
2019-04-11T19:13:17.597Z,58.04
2019-04-11T19:15:46.457Z,58.76
2019-04-11T19:18:16.598Z,58.06
2019-04-11T19:20:45.505Z,57.61
2019-04-11T19:23:14.308Z,60.01
2019-04-11T19:25:45.135Z,58.10
2019-04-11T19:28:13.214Z,59.91
2019-04-11T19:30:42.451Z,57.20
2019-04-11T19:33:11.068Z,58.94
2019-04-11T19:35:41.626Z,58.51
2019-04-11T19:38:12.370Z,58.70
2019-04-11T19:40:41.495Z,59.44
2019-04-11T19:43:10.045Z,58.67
2019-04-11T19:45:39.028Z,59.11
2019-04-11T19:48:07.849Z,60.14
2019-04-11T19:50:36.552Z,59.71
2019-04-11T19:53:05.162Z,60.36
2019-04-11T19:55:38.475Z,60.37
2019-04-11T19:58:07.047Z,59.89
2019-04-11T20:00:37.007Z,59.57
2019-04-11T20:03:05.569Z,59.26
2019-04-11T20:05:34.085Z,60.25
2019-04-11T20:08:02.836Z,60.75
2019-04-11T20:10:31.433Z,60.40
2019-04-11T20:13:01.918Z,59.53
2019-04-11T20:15:37.030Z,60.35
2019-04-11T20:18:02.125Z,59.91
2019-04-11T20:20:30.739Z,60.22
2019-04-11T20:22:59.608Z,58.87
2019-04-11T20:25:28.363Z,59.90
2019-04-11T20:27:57.487Z,60.21
2019-04-11T20:30:26.391Z,60.40
2019-04-11T20:32:55.040Z,61.72
2019-04-11T20:35:28.827Z,59.60
2019-04-11T20:37:54.320Z,61.20
2019-04-11T20:40:22.966Z,61.40
2019-04-11T20:42:54.125Z,61.73
2019-04-11T20:45:22.650Z,59.83
2019-04-11T20:47:51.189Z,61.00
2019-04-11T20:50:20.029Z,61.26
2019-04-11T20:52:48.617Z,61.88
2019-04-11T20:55:17.485Z,61.97
2019-04-11T20:57:45.953Z,61.59
2019-04-11T21:00:14.810Z,61.22
2019-04-11T21:02:43.310Z,62.19
2019-04-11T21:05:11.889Z,60.39
2019-04-11T21:07:40.478Z,62.63
2019-04-11T21:10:09.399Z,62.39
2019-04-11T21:12:38.083Z,61.77
2019-04-11T21:15:08.508Z,62.15
2019-04-11T21:17:37.103Z,62.61
2019-04-11T21:20:07.273Z,61.43
2019-04-11T21:22:35.759Z,62.40
2019-04-11T21:25:04.970Z,60.50
2019-04-11T21:27:33.461Z,60.46
2019-04-11T21:30:02.129Z,60.85
2019-04-11T21:32:31.880Z,60.43
2019-04-11T21:35:02.937Z,61.50
2019-04-11T21:37:31.588Z,61.15
2019-04-11T21:40:00.096Z,61.26
2019-04-11T21:42:28.857Z,62.48
2019-04-11T21:44:57.339Z,62.48
2019-04-11T21:47:25.989Z,63.07
2019-04-11T21:49:54.461Z,62.50
2019-04-11T21:52:22.962Z,62.17
2019-04-11T21:54:51.531Z,61.87
2019-04-11T21:57:20.095Z,62.45
2019-04-11T21:59:51.289Z,61.76
2019-04-11T22:02:19.098Z,61.76
2019-04-11T22:04:47.616Z,63.38
2019-04-11T22:07:16.116Z,63.35
2019-04-11T22:09:44.617Z,62.36
2019-04-11T22:12:13.158Z,62.36
2019-04-11T22:14:42.552Z,64.45
2019-04-11T22:17:14.950Z,64.70
2019-04-11T22:19:45.365Z,63.90
2019-04-11T22:22:11.796Z,62.94
2019-04-11T22:24:40.350Z,63.16
2019-04-11T22:27:08.839Z,64.32
2019-04-11T22:29:37.395Z,65.04
2019-04-11T22:32:05.945Z,65.04
2019-04-11T22:34:42.166Z,63.75
2019-04-11T22:37:10.691Z,64.69
2019-04-11T22:39:39.172Z,64.83
2019-04-11T22:42:07.864Z,65.08
2019-04-11T22:44:38.078Z,64.72
2019-04-11T22:47:08.029Z,64.63
2019-04-11T22:49:39.360Z,64.57
2019-04-11T22:52:07.537Z,65.21
2019-04-11T22:54:36.129Z,65.21
2019-04-11T22:57:04.654Z,63.70
2019-04-11T22:59:33.152Z,64.56
2019-04-11T23:02:03.473Z,64.56
2019-04-11T23:04:31.962Z,65.06
2019-04-11T23:07:00.454Z,65.06
2019-04-11T23:09:28.944Z,65.03
2019-04-11T23:11:57.903Z,66.31
2019-04-11T23:14:26.399Z,65.10
2019-04-11T23:16:54.939Z,64.71
2019-04-11T23:19:23.499Z,64.26
2019-04-11T23:21:52.217Z,65.92
2019-04-11T23:24:20.837Z,65.92
2019-04-11T23:26:49.378Z,65.65
2019-04-11T23:29:17.861Z,64.15
2019-04-11T23:31:46.403Z,65.12
2019-04-11T23:34:14.926Z,65.46
2019-04-11T23:36:43.478Z,64.62
2019-04-11T23:39:12.015Z,65.09
2019-04-11T23:41:40.673Z,66.26
2019-04-11T23:44:09.159Z,65.61
2019-04-11T23:46:37.734Z,65.31
2019-04-11T23:49:06.239Z,65.66
2019-04-11T23:51:34.781Z,65.31
2019-04-11T23:54:03.319Z,65.95
2019-04-11T23:56:31.929Z,66.51
2019-04-11T23:59:02.129Z,66.51
